PWSweather.com
Personal Weather Stations
Station Observations
AUSTRALIA
Summerhill, LauncestonAU 7250

SummerhillLauncestonAU 7250

Lat: -41.461352, Lon: 147.128382

Elevation: 787.4

Station Type: Vantage Vue Pro 2

http://stevesweather.datawebnet.com.au/index.php

Latest ConditionsUpdated 6:00:02 AM GMT+10:10 Tuesday, Feb 20, 2018
Currently Today's Max Today's Min Today's Average
Temperature 50.2°F10.1°C 51.1°F10.6°C 48.9°F9.4°C 49.8°F9.9°C
Dew Point 41.9°F5.5°C 41.9°F5.5°C 40.1°F4.5°C 40.6°F4.8°C
Winds Calm Calm 4.0 mph S6.4 kmh S - 2.3 mph 3.7 kmh
Wind Gusts 3.0 mph4.8 kmh 12.0 mph19.3 kmh - -
Humidity 73% 74% 67% 71%
Pressure 30.31 in1026.4 mb 30.31 in1026.4 mb 30.28 in1025.4 mb -
Hour Temp Dew Point Humidity Winds Wind Gusts Pressure Precip Precip Rate Daily Precip Total
06:00 AM 50.2°F10.1°C 41.9°F5.5°C 73% Calm Calm 3.0 mph4.8 kmh 30.31 in1026.4 mb 0.00 in0.0 mm 0.00 in0.0 mm 0.00 in0.0 mm
05:45 AM 49.6°F9.8°C 41.3°F5.2°C 73% Calm Calm 2.0 mph3.2 kmh 30.31 in1026.4 mb 0.00 in0.0 mm 0.00 in0.0 mm 0.00 in0.0 mm
05:30 AM 49.5°F9.7°C 41.5°F5.3°C 74% 2.0 mph S3.2 kmh S 5.0 mph8.0 kmh 30.31 in1026.4 mb 0.00 in0.0 mm 0.00 in0.0 mm 0.00 in0.0 mm
05:15 AM 48.9°F9.4°C 40.6°F4.8°C 73% 1.0 mph S1.6 kmh S 5.0 mph8.0 kmh 30.30 in1026.1 mb 0.00 in0.0 mm 0.00 in0.0 mm 0.00 in0.0 mm
05:00 AM 49.1°F9.5°C 40.8°F4.9°C 73% 2.0 mph S3.2 kmh S 6.0 mph9.7 kmh 30.30 in1026.1 mb 0.00 in0.0 mm 0.00 in0.0 mm 0.00 in0.0 mm
04:45 AM 48.9°F9.4°C 40.6°F4.8°C 73% 3.0 mph SE4.8 kmh SE 7.0 mph11.3 kmh 30.30 in1026.1 mb 0.00 in0.0 mm 0.00 in0.0 mm 0.00 in0.0 mm
04:30 AM 48.9°F9.4°C 40.3°F4.6°C 72% 1.0 mph SSE1.6 kmh SSE 5.0 mph8.0 kmh 30.30 in1026.1 mb 0.00 in0.0 mm 0.00 in0.0 mm 0.00 in0.0 mm
04:15 AM 48.9°F9.4°C 40.3°F4.6°C 72% 1.0 mph S1.6 kmh S 9.0 mph14.5 kmh 30.29 in1025.7 mb 0.00 in0.0 mm 0.00 in0.0 mm 0.00 in0.0 mm
04:00 AM 48.9°F9.4°C 40.3°F4.6°C 72% 1.0 mph SSW1.6 kmh SSW 5.0 mph8.0 kmh 30.28 in1025.4 mb 0.00 in0.0 mm 0.00 in0.0 mm 0.00 in0.0 mm
03:45 AM 49.1°F9.5°C 40.5°F4.7°C 72% 2.0 mph SSE3.2 kmh SSE 6.0 mph9.7 kmh 30.28 in1025.4 mb 0.00 in0.0 mm 0.00 in0.0 mm 0.00 in0.0 mm
03:30 AM 49.3°F9.6°C 40.6°F4.8°C 72% 1.0 mph S1.6 kmh S 5.0 mph8.0 kmh 30.28 in1025.4 mb 0.00 in0.0 mm 0.00 in0.0 mm 0.00 in0.0 mm
03:15 AM 49.5°F9.7°C 40.4°F4.7°C 71% Calm Calm 5.0 mph8.0 kmh 30.28 in1025.4 mb 0.00 in0.0 mm 0.00 in0.0 mm 0.00 in0.0 mm
03:00 AM 49.8°F9.9°C 40.4°F4.7°C 70% 2.0 mph S3.2 kmh S 7.0 mph11.3 kmh 30.28 in1025.4 mb 0.00 in0.0 mm 0.00 in0.0 mm 0.00 in0.0 mm
02:45 AM 49.8°F9.9°C 40.1°F4.5°C 69% 3.0 mph S4.8 kmh S 9.0 mph14.5 kmh 30.28 in1025.4 mb 0.00 in0.0 mm 0.00 in0.0 mm 0.00 in0.0 mm
02:30 AM 49.8°F9.9°C 40.1°F4.5°C 69% 4.0 mph S6.4 kmh S 11.0 mph17.7 kmh 30.28 in1025.4 mb 0.00 in0.0 mm 0.00 in0.0 mm 0.00 in0.0 mm
02:15 AM 49.8°F9.9°C 40.1°F4.5°C 69% 4.0 mph S6.4 kmh S 10.0 mph16.1 kmh 30.28 in1025.4 mb 0.00 in0.0 mm 0.00 in0.0 mm 0.00 in0.0 mm
02:00 AM 49.8°F9.9°C 40.4°F4.7°C 70% 4.0 mph S6.4 kmh S 12.0 mph19.3 kmh 30.28 in1025.4 mb 0.00 in0.0 mm 0.00 in0.0 mm 0.00 in0.0 mm
01:45 AM 50.0°F10.0°C 40.6°F4.8°C 70% 3.0 mph S4.8 kmh S 7.0 mph11.3 kmh 30.28 in1025.4 mb 0.00 in0.0 mm 0.00 in0.0 mm 0.00 in0.0 mm
01:30 AM 50.4°F10.2°C 40.6°F4.8°C 69% 3.0 mph S4.8 kmh S 9.0 mph14.5 kmh 30.29 in1025.7 mb 0.00 in0.0 mm 0.00 in0.0 mm 0.00 in0.0 mm
01:15 AM 50.4°F10.2°C 40.6°F4.8°C 69% 3.0 mph S4.8 kmh S 9.0 mph14.5 kmh 30.29 in1025.7 mb 0.00 in0.0 mm 0.00 in0.0 mm 0.00 in0.0 mm
01:00 AM 50.5°F10.3°C 40.7°F4.8°C 69% 4.0 mph S6.4 kmh S 10.0 mph16.1 kmh 30.29 in1025.7 mb 0.00 in0.0 mm 0.00 in0.0 mm 0.00 in0.0 mm
12:45 AM 50.4°F10.2°C 40.9°F4.9°C 70% 3.0 mph S4.8 kmh S 9.0 mph14.5 kmh 30.29 in1025.7 mb 0.00 in0.0 mm 0.00 in0.0 mm 0.00 in0.0 mm
12:30 AM 50.5°F10.3°C 41.1°F5.1°C 70% 4.0 mph S6.4 kmh S 10.0 mph16.1 kmh 30.29 in1025.7 mb 0.00 in0.0 mm 0.00 in0.0 mm 0.00 in0.0 mm
12:15 AM 50.7°F10.4°C 40.5°F4.7°C 68% 2.0 mph S3.2 kmh S 7.0 mph11.3 kmh 30.29 in1025.7 mb 0.00 in0.0 mm 0.00 in0.0 mm 0.00 in0.0 mm
12:00 AM 51.1°F10.6°C 40.5°F4.7°C 67% 4.0 mph S6.4 kmh S 10.0 mph16.1 kmh 30.28 in1025.4 mb 0.00 in0.0 mm 0.00 in0.0 mm 0.00 in0.0 mm